sensor_id;sensor_type;location;lat;lon;timestamp;temperature;humidity
16974;DHT22;8603;46.944;7.412;2023-04-02T00:01:02;5.90;99.90
16974;DHT22;8603;46.944;7.412;2023-04-02T00:06:46;5.80;99.90
16974;DHT22;8603;46.944;7.412;2023-04-02T00:09:30;5.80;99.90
16974;DHT22;8603;46.944;7.412;2023-04-02T00:12:29;5.90;99.90
16974;DHT22;8603;46.944;7.412;2023-04-02T00:15:43;5.80;99.90
16974;DHT22;8603;46.944;7.412;2023-04-02T00:18:55;5.80;99.90
16974;DHT22;8603;46.944;7.412;2023-04-02T02:24:52;5.00;99.90
16974;DHT22;8603;46.944;7.412;2023-04-02T08:15:12;11.80;99.90
16974;DHT22;8603;46.944;7.412;2023-04-02T08:28:15;12.80;99.90
16974;DHT22;8603;46.944;7.412;2023-04-02T08:30:41;13.10;99.90
16974;DHT22;8603;46.944;7.412;2023-04-02T08:33:07;13.30;99.90
16974;DHT22;8603;46.944;7.412;2023-04-02T08:35:32;13.10;99.90
16974;DHT22;8603;46.944;7.412;2023-04-02T08:37:58;13.10;99.90
16974;DHT22;8603;46.944;7.412;2023-04-02T08:40:31;13.40;99.90
16974;DHT22;8603;46.944;7.412;2023-04-02T08:46:35;13.90;99.90
16974;DHT22;8603;46.944;7.412;2023-04-02T08:49:00;14.00;99.90
16974;DHT22;8603;46.944;7.412;2023-04-02T08:51:29;14.40;99.90
16974;DHT22;8603;46.944;7.412;2023-04-02T08:54:05;14.70;99.90
16974;DHT22;8603;46.944;7.412;2023-04-02T08:56:39;15.20;99.90
16974;DHT22;8603;46.944;7.412;2023-04-02T09:02:01;15.70;99.90
16974;DHT22;8603;46.944;7.412;2023-04-02T09:04:31;16.20;99.90
16974;DHT22;8603;46.944;7.412;2023-04-02T09:06:58;17.30;99.90
16974;DHT22;8603;46.944;7.412;2023-04-02T09:09:25;18.10;99.90
16974;DHT22;8603;46.944;7.412;2023-04-02T09:11:58;18.60;99.90
16974;DHT22;8603;46.944;7.412;2023-04-02T09:14:45;19.40;99.90
16974;DHT22;8603;46.944;7.412;2023-04-02T09:17:23;20.30;99.90
16974;DHT22;8603;46.944;7.412;2023-04-02T09:22:42;19.30;99.90
16974;DHT22;8603;46.944;7.412;2023-04-02T09:25:16;18.30;99.90
16974;DHT22;8603;46.944;7.412;2023-04-02T09:27:47;17.40;99.90
16974;DHT22;8603;46.944;7.412;2023-04-02T09:33:02;16.30;99.90
16974;DHT22;8603;46.944;7.412;2023-04-02T09:35:58;16.30;99.90
16974;DHT22;8603;46.944;7.412;2023-04-02T09:38:27;16.50;99.90
16974;DHT22;8603;46.944;7.412;2023-04-02T09:41:02;16.30;99.90
16974;DHT22;8603;46.944;7.412;2023-04-02T09:43:30;16.10;99.90
16974;DHT22;8603;46.944;7.412;2023-04-02T09:48:54;15.50;99.90
16974;DHT22;8603;46.944;7.412;2023-04-02T09:51:24;15.10;99.90
16974;DHT22;8603;46.944;7.412;2023-04-02T09:54:04;14.80;99.90
16974;DHT22;8603;46.944;7.412;2023-04-02T09:56:33;14.60;99.90
16974;DHT22;8603;46.944;7.412;2023-04-02T10:01:45;14.40;99.90
16974;DHT22;8603;46.944;7.412;2023-04-02T10:04:36;14.50;99.90
16974;DHT22;8603;46.944;7.412;2023-04-02T10:07:04;14.50;99.90
16974;DHT22;8603;46.944;7.412;2023-04-02T10:09:35;14.60;99.90
16974;DHT22;8603;46.944;7.412;2023-04-02T10:12:04;14.50;99.90
16974;DHT22;8603;46.944;7.412;2023-04-02T10:14:37;14.80;99.90
16974;DHT22;8603;46.944;7.412;2023-04-02T10:17:19;14.80;99.90
16974;DHT22;8603;46.944;7.412;2023-04-02T10:19:47;14.80;99.90
16974;DHT22;8603;46.944;7.412;2023-04-02T10:22:26;14.50;99.90
16974;DHT22;8603;46.944;7.412;2023-04-02T10:24:52;14.30;99.90
16974;DHT22;8603;46.944;7.412;2023-04-02T10:33:17;14.30;99.90
16974;DHT22;8603;46.944;7.412;2023-04-02T10:39:20;14.80;99.90
16974;DHT22;8603;46.944;7.412;2023-04-02T10:42:21;14.90;99.90
16974;DHT22;8603;46.944;7.412;2023-04-02T10:47:48;15.40;99.90
16974;DHT22;8603;46.944;7.412;2023-04-02T10:51:23;15.60;99.90
16974;DHT22;8603;46.944;7.412;2023-04-02T10:53:19;15.90;99.90
16974;DHT22;8603;46.944;7.412;2023-04-02T10:55:54;15.90;99.90
16974;DHT22;8603;46.944;7.412;2023-04-02T10:58:26;15.90;99.90
16974;DHT22;8603;46.944;7.412;2023-04-02T11:00:57;16.00;99.90
16974;DHT22;8603;46.944;7.412;2023-04-02T11:03:38;16.00;99.90
16974;DHT22;8603;46.944;7.412;2023-04-02T11:06:37;16.00;99.90
16974;DHT22;8603;46.944;7.412;2023-04-02T11:09:17;16.40;99.90
16974;DHT22;8603;46.944;7.412;2023-04-02T11:11:53;16.60;99.90
16974;DHT22;8603;46.944;7.412;2023-04-02T11:14:31;16.50;99.90
16974;DHT22;8603;46.944;7.412;2023-04-02T11:17:27;16.50;99.90
16974;DHT22;8603;46.944;7.412;2023-04-02T11:23:17;16.10;99.90
16974;DHT22;8603;46.944;7.412;2023-04-02T11:25:46;15.60;99.90
16974;DHT22;8603;46.944;7.412;2023-04-02T11:28:29;15.30;99.90
16974;DHT22;8603;46.944;7.412;2023-04-02T11:31:27;15.20;99.90
16974;DHT22;8603;46.944;7.412;2023-04-02T11:33:59;15.00;99.90
16974;DHT22;8603;46.944;7.412;2023-04-02T11:36:59;14.90;99.90
16974;DHT22;8603;46.944;7.412;2023-04-02T11:39:52;14.60;99.90
16974;DHT22;8603;46.944;7.412;2023-04-02T11:42:43;14.80;99.90
16974;DHT22;8603;46.944;7.412;2023-04-02T11:50:34;14.60;99.90
16974;DHT22;8603;46.944;7.412;2023-04-02T11:59:08;15.30;99.90
16974;DHT22;8603;46.944;7.412;2023-04-02T12:05:38;16.00;99.90
16974;DHT22;8603;46.944;7.412;2023-04-02T12:08:05;16.20;99.90
16974;DHT22;8603;46.944;7.412;2023-04-02T12:10:55;16.30;99.90
16974;DHT22;8603;46.944;7.412;2023-04-02T12:16:11;15.90;99.90
16974;DHT22;8603;46.944;7.412;2023-04-02T12:18:55;15.90;99.90
16974;DHT22;8603;46.944;7.412;2023-04-02T12:21:44;15.60;99.90
16974;DHT22;8603;46.944;7.412;2023-04-02T12:24:21;15.50;99.90
16974;DHT22;8603;46.944;7.412;2023-04-02T12:27:07;15.40;99.90
16974;DHT22;8603;46.944;7.412;2023-04-02T12:29:33;15.30;99.90
16974;DHT22;8603;46.944;7.412;2023-04-02T12:31:59;15.40;99.90
16974;DHT22;8603;46.944;7.412;2023-04-02T12:34:31;15.20;99.90
16974;DHT22;8603;46.944;7.412;2023-04-02T12:37:00;15.10;99.90
16974;DHT22;8603;46.944;7.412;2023-04-02T12:39:39;15.10;99.90
16974;DHT22;8603;46.944;7.412;2023-04-02T12:42:38;15.30;99.90
16974;DHT22;8603;46.944;7.412;2023-04-02T12:45:19;15.40;99.90
16974;DHT22;8603;46.944;7.412;2023-04-02T12:47:46;15.30;99.90
16974;DHT22;8603;46.944;7.412;2023-04-02T12:50:13;15.20;99.90
16974;DHT22;8603;46.944;7.412;2023-04-02T12:52:46;15.20;99.90
16974;DHT22;8603;46.944;7.412;2023-04-02T12:55:20;15.10;99.90
16974;DHT22;8603;46.944;7.412;2023-04-02T13:01:20;14.90;99.90
16974;DHT22;8603;46.944;7.412;2023-04-02T13:04:08;15.00;99.90
16974;DHT22;8603;46.944;7.412;2023-04-02T13:06:37;15.10;99.90
16974;DHT22;8603;46.944;7.412;2023-04-02T13:09:27;14.90;99.90
16974;DHT22;8603;46.944;7.412;2023-04-02T13:11:56;14.80;99.90
16974;DHT22;8603;46.944;7.412;2023-04-02T13:14:25;14.60;99.90
16974;DHT22;8603;46.944;7.412;2023-04-02T13:16:51;14.30;99.90
16974;DHT22;8603;46.944;7.412;2023-04-02T13:19:33;14.10;99.90
16974;DHT22;8603;46.944;7.412;2023-04-02T13:22:28;14.00;99.90
16974;DHT22;8603;46.944;7.412;2023-04-02T13:24:54;13.90;99.90
16974;DHT22;8603;46.944;7.412;2023-04-02T13:27:23;14.00;99.90
16974;DHT22;8603;46.944;7.412;2023-04-02T13:29:49;14.00;99.90
16974;DHT22;8603;46.944;7.412;2023-04-02T13:32:24;14.20;99.90
16974;DHT22;8603;46.944;7.412;2023-04-02T13:34:50;14.30;99.90
16974;DHT22;8603;46.944;7.412;2023-04-02T13:38:00;14.50;99.90
16974;DHT22;8603;46.944;7.412;2023-04-02T13:40:36;14.70;99.90
16974;DHT22;8603;46.944;7.412;2023-04-02T13:43:21;14.80;99.90
16974;DHT22;8603;46.944;7.412;2023-04-02T13:45:52;15.00;99.90
16974;DHT22;8603;46.944;7.412;2023-04-02T13:48:25;15.00;99.90
16974;DHT22;8603;46.944;7.412;2023-04-02T13:50:56;15.10;99.90
16974;DHT22;8603;46.944;7.412;2023-04-02T13:53:29;15.00;99.90
16974;DHT22;8603;46.944;7.412;2023-04-02T13:55:57;15.00;99.90
16974;DHT22;8603;46.944;7.412;2023-04-02T13:58:26;15.10;99.90
16974;DHT22;8603;46.944;7.412;2023-04-02T14:01:01;15.10;99.90
16974;DHT22;8603;46.944;7.412;2023-04-02T14:03:27;15.10;99.90
16974;DHT22;8603;46.944;7.412;2023-04-02T14:09:09;15.50;99.90
16974;DHT22;8603;46.944;7.412;2023-04-02T14:11:49;15.50;99.90
16974;DHT22;8603;46.944;7.412;2023-04-02T14:20:04;15.30;99.90
16974;DHT22;8603;46.944;7.412;2023-04-02T14:37:48;14.90;99.90
16974;DHT22;8603;46.944;7.412;2023-04-02T14:40:37;15.00;99.90
16974;DHT22;8603;46.944;7.412;2023-04-02T14:43:25;14.80;99.90
16974;DHT22;8603;46.944;7.412;2023-04-02T14:46:05;14.80;99.90
16974;DHT22;8603;46.944;7.412;2023-04-02T14:48:56;14.90;99.90
16974;DHT22;8603;46.944;7.412;2023-04-02T14:51:29;14.90;99.90
16974;DHT22;8603;46.944;7.412;2023-04-02T14:57:16;14.70;99.90
16974;DHT22;8603;46.944;7.412;2023-04-02T15:08:36;14.40;99.90
16974;DHT22;8603;46.944;7.412;2023-04-02T15:16:40;14.40;99.90
16974;DHT22;8603;46.944;7.412;2023-04-02T15:19:14;14.30;99.90
16974;DHT22;8603;46.944;7.412;2023-04-02T15:22:44;14.20;99.90
16974;DHT22;8603;46.944;7.412;2023-04-02T15:25:12;13.60;99.90
16974;DHT22;8603;46.944;7.412;2023-04-02T15:32:48;13.10;99.90
16974;DHT22;8603;46.944;7.412;2023-04-02T15:35:41;12.90;99.90
16974;DHT22;8603;46.944;7.412;2023-04-02T15:38:21;12.70;99.90
16974;DHT22;8603;46.944;7.412;2023-04-02T15:44:12;12.30;99.90
16974;DHT22;8603;46.944;7.412;2023-04-02T15:50:12;12.50;99.90
16974;DHT22;8603;46.944;7.412;2023-04-02T15:58:36;12.60;99.90
16974;DHT22;8603;46.944;7.412;2023-04-02T16:07:23;12.90;99.90
16974;DHT22;8603;46.944;7.412;2023-04-02T16:12:28;13.00;99.90
16974;DHT22;8603;46.944;7.412;2023-04-02T16:14:59;13.20;99.90
16974;DHT22;8603;46.944;7.412;2023-04-02T16:17:35;13.20;99.90
16974;DHT22;8603;46.944;7.412;2023-04-02T16:20:26;13.20;99.90
16974;DHT22;8603;46.944;7.412;2023-04-02T16:23:10;13.20;99.90
16974;DHT22;8603;46.944;7.412;2023-04-02T16:25:48;13.20;99.90
16974;DHT22;8603;46.944;7.412;2023-04-02T16:28:34;13.10;99.90
16974;DHT22;8603;46.944;7.412;2023-04-02T16:58:32;14.20;99.90
16974;DHT22;8603;46.944;7.412;2023-04-02T17:01:30;14.40;99.90
16974;DHT22;8603;46.944;7.412;2023-04-02T17:07:26;14.30;99.90
16974;DHT22;8603;46.944;7.412;2023-04-02T17:10:03;14.10;99.90
16974;DHT22;8603;46.944;7.412;2023-04-02T17:12:59;13.70;99.90
16974;DHT22;8603;46.944;7.412;2023-04-02T17:15:29;13.40;99.90
16974;DHT22;8603;46.944;7.412;2023-04-02T17:17:59;12.90;99.90
16974;DHT22;8603;46.944;7.412;2023-04-02T17:20:25;12.40;99.90
16974;DHT22;8603;46.944;7.412;2023-04-02T17:22:51;12.20;99.90
16974;DHT22;8603;46.944;7.412;2023-04-02T17:25:24;11.70;99.90
16974;DHT22;8603;46.944;7.412;2023-04-02T17:27:54;11.00;99.90
16974;DHT22;8603;46.944;7.412;2023-04-02T17:30:34;10.60;99.90
16974;DHT22;8603;46.944;7.412;2023-04-02T17:33:03;10.50;99.90
16974;DHT22;8603;46.944;7.412;2023-04-02T17:35:55;9.80;99.90
16974;DHT22;8603;46.944;7.412;2023-04-02T17:41:27;9.40;99.90
16974;DHT22;8603;46.944;7.412;2023-04-02T17:44:26;9.10;99.90
16974;DHT22;8603;46.944;7.412;2023-04-02T17:47:10;8.80;99.90
16974;DHT22;8603;46.944;7.412;2023-04-02T17:49:51;8.60;99.90
16974;DHT22;8603;46.944;7.412;2023-04-02T17:52:35;8.40;99.90
16974;DHT22;8603;46.944;7.412;2023-04-02T17:57:54;7.90;99.90
16974;DHT22;8603;46.944;7.412;2023-04-02T18:00:56;7.80;99.90
16974;DHT22;8603;46.944;7.412;2023-04-02T18:03:25;7.60;99.90
16974;DHT22;8603;46.944;7.412;2023-04-02T18:06:19;7.50;99.90
16974;DHT22;8603;46.944;7.412;2023-04-02T18:14:03;7.40;99.90
16974;DHT22;8603;46.944;7.412;2023-04-02T18:19:16;7.50;99.90
16974;DHT22;8603;46.944;7.412;2023-04-02T18:21:57;7.50;99.90
16974;DHT22;8603;46.944;7.412;2023-04-02T18:29:59;7.40;99.90
16974;DHT22;8603;46.944;7.412;2023-04-02T18:35:14;7.30;99.90
16974;DHT22;8603;46.944;7.412;2023-04-02T18:38:03;7.20;99.90
16974;DHT22;8603;46.944;7.412;2023-04-02T18:41:04;7.30;99.90
16974;DHT22;8603;46.944;7.412;2023-04-02T18:46:51;7.20;99.90
16974;DHT22;8603;46.944;7.412;2023-04-02T18:49:19;7.20;99.90
16974;DHT22;8603;46.944;7.412;2023-04-02T18:51:51;7.10;99.90
16974;DHT22;8603;46.944;7.412;2023-04-02T18:54:24;7.10;99.90
16974;DHT22;8603;46.944;7.412;2023-04-02T18:56:52;7.10;99.90
16974;DHT22;8603;46.944;7.412;2023-04-02T19:01:53;7.10;99.90
16974;DHT22;8603;46.944;7.412;2023-04-02T19:04:35;7.10;99.90
16974;DHT22;8603;46.944;7.412;2023-04-02T19:10:36;7.20;99.90
16974;DHT22;8603;46.944;7.412;2023-04-02T19:13:29;7.30;99.90
16974;DHT22;8603;46.944;7.412;2023-04-02T19:22:21;7.10;99.90
16974;DHT22;8603;46.944;7.412;2023-04-02T19:30:53;7.00;99.90
16974;DHT22;8603;46.944;7.412;2023-04-02T19:33:43;7.10;99.90
16974;DHT22;8603;46.944;7.412;2023-04-02T19:36:36;7.10;99.90
16974;DHT22;8603;46.944;7.412;2023-04-02T19:45:30;7.10;99.90
16974;DHT22;8603;46.944;7.412;2023-04-02T19:48:02;7.10;99.90
16974;DHT22;8603;46.944;7.412;2023-04-02T19:50:55;7.10;99.90
16974;DHT22;8603;46.944;7.412;2023-04-02T19:57:31;7.10;99.90
16974;DHT22;8603;46.944;7.412;2023-04-02T20:07:00;7.20;99.90
16974;DHT22;8603;46.944;7.412;2023-04-02T20:09:33;7.10;99.90
16974;DHT22;8603;46.944;7.412;2023-04-02T20:12:30;7.00;99.90
16974;DHT22;8603;46.944;7.412;2023-04-02T20:18:17;6.90;99.90
16974;DHT22;8603;46.944;7.412;2023-04-02T20:20:49;6.80;99.90
16974;DHT22;8603;46.944;7.412;2023-04-02T20:24:13;6.80;99.90
16974;DHT22;8603;46.944;7.412;2023-04-02T20:35:59;6.90;99.90
16974;DHT22;8603;46.944;7.412;2023-04-02T20:39:14;6.90;99.90
16974;DHT22;8603;46.944;7.412;2023-04-02T21:06:31;6.90;99.90
16974;DHT22;8603;46.944;7.412;2023-04-02T21:12:54;6.80;99.90
16974;DHT22;8603;46.944;7.412;2023-04-02T21:15:23;6.80;99.90
16974;DHT22;8603;46.944;7.412;2023-04-02T21:17:54;6.70;99.90
16974;DHT22;8603;46.944;7.412;2023-04-02T21:23:53;6.70;99.90
16974;DHT22;8603;46.944;7.412;2023-04-02T21:26:33;6.70;99.90
16974;DHT22;8603;46.944;7.412;2023-04-02T21:29:14;6.60;99.90
16974;DHT22;8603;46.944;7.412;2023-04-02T21:31:44;6.60;99.90
16974;DHT22;8603;46.944;7.412;2023-04-02T21:34:20;6.60;99.90
16974;DHT22;8603;46.944;7.412;2023-04-02T21:36:49;6.50;99.90
16974;DHT22;8603;46.944;7.412;2023-04-02T21:39:19;6.50;99.90
16974;DHT22;8603;46.944;7.412;2023-04-02T21:41:50;6.60;99.90
16974;DHT22;8603;46.944;7.412;2023-04-02T21:44:19;6.50;99.90
16974;DHT22;8603;46.944;7.412;2023-04-02T21:46:47;6.60;99.90
16974;DHT22;8603;46.944;7.412;2023-04-02T21:49:15;6.60;99.90
16974;DHT22;8603;46.944;7.412;2023-04-02T21:51:43;6.60;99.90
16974;DHT22;8603;46.944;7.412;2023-04-02T21:54:16;6.50;99.90
16974;DHT22;8603;46.944;7.412;2023-04-02T21:56:48;6.50;99.90
16974;DHT22;8603;46.944;7.412;2023-04-02T21:59:15;6.60;99.90
16974;DHT22;8603;46.944;7.412;2023-04-02T22:01:48;6.50;99.90
16974;DHT22;8603;46.944;7.412;2023-04-02T22:04:28;6.60;99.90
16974;DHT22;8603;46.944;7.412;2023-04-02T22:13:38;6.60;99.90
16974;DHT22;8603;46.944;7.412;2023-04-02T22:16:30;6.50;99.90
16974;DHT22;8603;46.944;7.412;2023-04-02T22:19:40;6.60;99.90
16974;DHT22;8603;46.944;7.412;2023-04-02T22:22:14;6.50;99.90
16974;DHT22;8603;46.944;7.412;2023-04-02T22:30:32;6.60;99.90
16974;DHT22;8603;46.944;7.412;2023-04-02T22:33:07;6.50;99.90
16974;DHT22;8603;46.944;7.412;2023-04-02T22:35:39;6.50;99.90
16974;DHT22;8603;46.944;7.412;2023-04-02T22:38:08;6.50;99.90
16974;DHT22;8603;46.944;7.412;2023-04-02T22:40:39;6.50;99.90
16974;DHT22;8603;46.944;7.412;2023-04-02T22:43:10;6.50;99.90
16974;DHT22;8603;46.944;7.412;2023-04-02T22:45:36;6.50;99.90
16974;DHT22;8603;46.944;7.412;2023-04-02T22:48:10;6.40;99.90
16974;DHT22;8603;46.944;7.412;2023-04-02T22:50:36;6.40;99.90
16974;DHT22;8603;46.944;7.412;2023-04-02T22:53:02;6.30;99.90
16974;DHT22;8603;46.944;7.412;2023-04-02T22:55:29;6.40;99.90
16974;DHT22;8603;46.944;7.412;2023-04-02T22:57:55;6.40;99.90
16974;DHT22;8603;46.944;7.412;2023-04-02T23:00:25;6.40;99.90
16974;DHT22;8603;46.944;7.412;2023-04-02T23:02:54;6.40;99.90
16974;DHT22;8603;46.944;7.412;2023-04-02T23:05:23;6.40;99.90
16974;DHT22;8603;46.944;7.412;2023-04-02T23:07:51;6.40;99.90
16974;DHT22;8603;46.944;7.412;2023-04-02T23:10:26;6.40;99.90
16974;DHT22;8603;46.944;7.412;2023-04-02T23:12:55;6.30;99.90
16974;DHT22;8603;46.944;7.412;2023-04-02T23:15:25;6.40;99.90
16974;DHT22;8603;46.944;7.412;2023-04-02T23:17:53;6.40;99.90
16974;DHT22;8603;46.944;7.412;2023-04-02T23:20:22;6.40;99.90
16974;DHT22;8603;46.944;7.412;2023-04-02T23:22:55;6.40;99.90
16974;DHT22;8603;46.944;7.412;2023-04-02T23:25:21;6.30;99.90
16974;DHT22;8603;46.944;7.412;2023-04-02T23:27:50;6.30;99.90
16974;DHT22;8603;46.944;7.412;2023-04-02T23:30:25;6.60;99.90
16974;DHT22;8603;46.944;7.412;2023-04-02T23:32:53;6.60;99.90
16974;DHT22;8603;46.944;7.412;2023-04-02T23:35:24;6.40;99.90
16974;DHT22;8603;46.944;7.412;2023-04-02T23:37:53;6.40;99.90
16974;DHT22;8603;46.944;7.412;2023-04-02T23:40:22;6.40;99.90
16974;DHT22;8603;46.944;7.412;2023-04-02T23:42:48;6.40;99.90
16974;DHT22;8603;46.944;7.412;2023-04-02T23:45:14;6.30;99.90
16974;DHT22;8603;46.944;7.412;2023-04-02T23:47:40;6.30;99.90
16974;DHT22;8603;46.944;7.412;2023-04-02T23:50:17;6.30;99.90
16974;DHT22;8603;46.944;7.412;2023-04-02T23:52:45;6.40;99.90
16974;DHT22;8603;46.944;7.412;2023-04-02T23:55:11;6.40;99.90
16974;DHT22;8603;46.944;7.412;2023-04-02T23:57:54;6.30;99.90
